createdAt,value
2022-10-13T00:00:51.199Z,12.13
2022-10-13T00:03:19.011Z,12.02
2022-10-13T00:05:48.801Z,11.56
2022-10-13T00:08:19.419Z,11.36
2022-10-13T00:10:49.729Z,11.23
2022-10-13T00:13:19.665Z,11.68
2022-10-13T00:15:47.815Z,11.99
2022-10-13T00:18:15.909Z,11.87
2022-10-13T00:20:45.070Z,11.90
2022-10-13T00:23:14.016Z,11.96
2022-10-13T00:25:49.666Z,12.01
2022-10-13T00:28:19.033Z,11.36
2022-10-13T00:30:46.944Z,11.26
2022-10-13T00:33:14.575Z,11.11
2022-10-13T00:35:44.431Z,11.73
2022-10-13T00:38:12.344Z,11.35
2022-10-13T00:40:47.447Z,11.64
2022-10-13T00:43:47.785Z,11.53
2022-10-13T00:46:15.637Z,11.87
2022-10-13T00:48:45.554Z,11.66
2022-10-13T00:51:15.273Z,11.55
2022-10-13T00:53:43.929Z,11.79
2022-10-13T00:56:12.286Z,11.83
2022-10-13T00:58:41.016Z,11.92
2022-10-13T01:01:08.668Z,11.70
2022-10-13T01:03:36.579Z,11.58
2022-10-13T01:06:05.591Z,11.81
2022-10-13T01:08:33.673Z,11.93
2022-10-13T01:11:19.800Z,11.57
2022-10-13T01:14:01.235Z,11.19
2022-10-13T01:16:53.670Z,11.65
2022-10-13T01:19:45.600Z,11.32
2022-10-13T01:22:40.610Z,11.39
2022-10-13T01:25:26.864Z,11.20
2022-10-13T01:28:28.632Z,11.36
2022-10-13T01:31:10.126Z,11.71
2022-10-13T01:33:40.227Z,11.37
2022-10-13T01:36:41.865Z,11.35
2022-10-13T01:39:28.008Z,11.66
2022-10-13T01:42:01.670Z,11.74
2022-10-13T01:44:36.245Z,11.73
2022-10-13T01:47:04.209Z,11.50
2022-10-13T01:49:34.770Z,11.63
2022-10-13T01:52:04.999Z,11.09
2022-10-13T01:54:33.212Z,11.44
2022-10-13T01:57:01.283Z,11.15
2022-10-13T01:59:30.638Z,11.40
2022-10-13T02:02:09.606Z,11.54
2022-10-13T02:04:40.107Z,11.51
2022-10-13T02:07:18.454Z,11.43
2022-10-13T02:09:55.517Z,11.59
2022-10-13T02:12:31.408Z,11.26
2022-10-13T02:14:59.609Z,10.99
2022-10-13T02:17:27.670Z,11.32
2022-10-13T02:19:55.651Z,11.45
2022-10-13T02:22:28.150Z,11.80
2022-10-13T02:24:56.154Z,11.67
2022-10-13T02:27:23.813Z,11.52
2022-10-13T02:29:56.688Z,11.68
2022-10-13T02:32:25.799Z,11.44
2022-10-13T02:34:53.729Z,11.61
2022-10-13T02:37:21.151Z,11.20
2022-10-13T02:39:48.725Z,11.06
2022-10-13T02:42:17.659Z,10.95
2022-10-13T02:44:45.285Z,11.22
2022-10-13T02:47:13.339Z,11.12
2022-10-13T02:49:40.690Z,11.05
2022-10-13T02:52:08.053Z,11.17
2022-10-13T02:54:38.245Z,11.31
2022-10-13T02:57:05.560Z,11.44
2022-10-13T02:59:32.921Z,11.12
2022-10-13T03:02:00.510Z,10.82
2022-10-13T03:04:28.833Z,11.08
2022-10-13T03:06:57.976Z,10.87
2022-10-13T03:09:25.609Z,11.10
2022-10-13T03:11:52.936Z,11.06
2022-10-13T03:14:20.275Z,10.73
2022-10-13T03:16:47.866Z,10.85
2022-10-13T03:19:15.495Z,10.95
2022-10-13T03:21:42.854Z,10.51
2022-10-13T03:24:10.458Z,10.49
2022-10-13T03:26:37.840Z,10.83
2022-10-13T03:29:05.161Z,10.54
2022-10-13T03:31:32.779Z,10.48
2022-10-13T03:34:02.329Z,10.62
2022-10-13T03:36:29.678Z,10.83
2022-10-13T03:38:57.273Z,10.73
2022-10-13T03:41:24.596Z,10.40
2022-10-13T03:43:52.271Z,10.80
2022-10-13T03:46:19.966Z,10.34
2022-10-13T03:48:48.009Z,10.25
2022-10-13T03:51:18.063Z,10.59
2022-10-13T03:53:46.856Z,10.50
2022-10-13T03:56:19.393Z,10.72
2022-10-13T03:58:54.314Z,10.71
2022-10-13T04:01:23.230Z,10.69
2022-10-13T04:03:52.426Z,10.42
2022-10-13T04:06:20.073Z,10.78
2022-10-13T04:08:48.369Z,10.72
2022-10-13T04:11:16.454Z,10.74
2022-10-13T04:13:45.034Z,10.62
2022-10-13T04:16:15.726Z,10.18
2022-10-13T04:18:44.979Z,10.36
2022-10-13T04:21:14.722Z,10.45
2022-10-13T04:23:42.523Z,10.40
2022-10-13T04:26:20.383Z,10.71
2022-10-13T04:28:49.250Z,10.76
2022-10-13T04:31:17.145Z,10.18
2022-10-13T04:33:45.183Z,10.22
2022-10-13T04:36:13.991Z,10.13
2022-10-13T04:38:42.311Z,10.24
2022-10-13T04:41:10.865Z,10.25
2022-10-13T04:43:38.410Z,10.57
2022-10-13T04:46:16.410Z,10.61
2022-10-13T04:48:43.810Z,10.51
2022-10-13T04:51:19.819Z,10.05
2022-10-13T04:53:47.186Z,10.36
2022-10-13T04:56:17.292Z,10.30
2022-10-13T04:58:45.831Z,10.01
2022-10-13T05:01:20.541Z,10.30
2022-10-13T05:03:56.636Z,10.45
2022-10-13T05:06:34.159Z,10.34
2022-10-13T05:09:02.272Z,10.16
2022-10-13T05:11:29.814Z,10.29
2022-10-13T05:13:57.645Z,10.14
2022-10-13T05:16:25.668Z,10.35
2022-10-13T05:18:54.337Z,10.57
2022-10-13T05:21:24.546Z,10.58
2022-10-13T05:23:56.006Z,9.94
2022-10-13T05:26:28.701Z,9.77
2022-10-13T05:28:56.877Z,10.25
2022-10-13T05:31:27.050Z,10.58
2022-10-13T05:33:55.371Z,10.59
2022-10-13T05:36:25.497Z,10.22
2022-10-13T05:38:54.826Z,10.08
2022-10-13T05:41:23.012Z,10.09
2022-10-13T05:43:51.898Z,10.17
2022-10-13T05:46:19.237Z,10.24
2022-10-13T05:48:46.577Z,10.41
2022-10-13T05:51:24.973Z,10.93
2022-10-13T05:53:57.825Z,11.00
2022-10-13T05:56:27.493Z,11.00
2022-10-13T05:59:00.028Z,11.15
2022-10-13T06:01:30.625Z,11.21
2022-10-13T06:04:01.457Z,10.93
2022-10-13T06:06:31.428Z,11.11
2022-10-13T06:09:00.815Z,11.09
2022-10-13T06:11:28.168Z,11.45
2022-10-13T06:13:55.514Z,11.82
2022-10-13T06:16:23.128Z,11.89
2022-10-13T06:18:50.466Z,11.69
2022-10-13T06:21:17.809Z,11.75
2022-10-13T06:23:45.372Z,12.32
2022-10-13T06:26:12.687Z,12.77
2022-10-13T06:28:40.043Z,13.33
2022-10-13T06:31:07.698Z,13.47
2022-10-13T06:33:35.084Z,13.55
2022-10-13T06:36:04.656Z,13.77
2022-10-13T06:38:32.947Z,13.88
2022-10-13T06:41:04.366Z,13.99
2022-10-13T06:43:39.932Z,14.33
2022-10-13T06:46:10.865Z,14.60
2022-10-13T06:48:39.031Z,15.12
2022-10-13T06:51:09.103Z,15.13
2022-10-13T06:53:37.318Z,14.41
2022-10-13T06:56:07.920Z,14.88
2022-10-13T06:58:36.055Z,15.04
2022-10-13T07:01:04.199Z,15.07
2022-10-13T07:03:32.054Z,15.30
2022-10-13T07:06:03.813Z,15.16
2022-10-13T07:08:31.937Z,15.36
2022-10-13T07:10:59.710Z,15.41
2022-10-13T07:13:27.730Z,15.49
2022-10-13T07:15:55.230Z,15.81
2022-10-13T07:18:22.843Z,15.79
2022-10-13T07:20:50.168Z,16.12
2022-10-13T07:23:17.476Z,16.20
2022-10-13T07:25:45.071Z,16.23
2022-10-13T07:28:12.468Z,15.97
2022-10-13T07:30:40.138Z,15.72
2022-10-13T07:33:07.761Z,16.01
2022-10-13T07:35:38.806Z,16.09
2022-10-13T07:38:07.425Z,16.23
2022-10-13T07:40:35.172Z,16.30
2022-10-13T07:43:02.876Z,16.47
2022-10-13T07:45:30.355Z,16.50
2022-10-13T07:47:57.947Z,16.17
2022-10-13T07:50:25.267Z,16.47
2022-10-13T07:52:52.579Z,16.56
2022-10-13T07:55:20.168Z,16.45
2022-10-13T07:57:47.477Z,16.51
2022-10-13T08:00:15.002Z,15.91
2022-10-13T08:02:42.666Z,16.84
2022-10-13T08:05:09.956Z,17.22
2022-10-13T08:07:39.288Z,17.15
2022-10-13T08:10:07.604Z,17.27
2022-10-13T08:12:35.885Z,17.21
2022-10-13T08:15:21.810Z,17.33
2022-10-13T08:17:49.395Z,17.52
2022-10-13T08:20:16.813Z,17.72
2022-10-13T08:22:44.145Z,17.47
2022-10-13T08:25:11.850Z,17.87
2022-10-13T08:27:50.791Z,18.30
2022-10-13T08:30:19.511Z,16.96
2022-10-13T08:32:47.403Z,17.87
2022-10-13T08:35:14.781Z,17.30
2022-10-13T08:37:42.464Z,17.53
2022-10-13T08:40:14.288Z,17.40
2022-10-13T08:42:43.842Z,16.99
2022-10-13T08:45:39.691Z,17.37
2022-10-13T08:48:14.190Z,17.87
2022-10-13T08:50:43.299Z,18.20
2022-10-13T08:53:16.576Z,17.96
2022-10-13T08:55:56.341Z,18.40
2022-10-13T08:58:26.755Z,17.89
2022-10-13T09:01:09.361Z,18.51
2022-10-13T09:04:15.498Z,17.59
2022-10-13T09:06:49.318Z,18.25
2022-10-13T09:09:17.373Z,18.35
2022-10-13T09:11:47.446Z,18.14
2022-10-13T09:14:25.457Z,18.33
2022-10-13T09:16:57.009Z,17.74
2022-10-13T09:19:40.731Z,17.35
2022-10-13T09:22:24.642Z,17.95
2022-10-13T09:25:11.932Z,18.55
2022-10-13T09:27:49.621Z,18.60
2022-10-13T09:30:29.079Z,19.08
2022-10-13T09:33:23.931Z,19.47
2022-10-13T09:35:57.115Z,19.50
2022-10-13T09:38:25.886Z,19.01
2022-10-13T09:41:00.516Z,19.44
2022-10-13T09:43:34.321Z,19.41
2022-10-13T09:46:04.914Z,19.74
2022-10-13T09:48:35.353Z,19.01
2022-10-13T09:51:02.915Z,19.26
2022-10-13T09:53:35.481Z,18.97
2022-10-13T09:56:30.347Z,18.73
2022-10-13T09:59:12.810Z,18.33
2022-10-13T10:01:44.835Z,18.58
2022-10-13T10:04:32.772Z,18.53
2022-10-13T10:07:01.144Z,18.90
2022-10-13T10:09:35.879Z,19.33
2022-10-13T10:12:03.554Z,20.19
2022-10-13T10:14:32.832Z,20.58
2022-10-13T10:17:09.346Z,20.28
2022-10-13T10:19:46.823Z,20.35
2022-10-13T10:22:38.013Z,20.55
2022-10-13T10:25:25.370Z,21.01
2022-10-13T10:28:14.868Z,20.82
2022-10-13T10:30:52.932Z,20.57
2022-10-13T10:33:27.556Z,21.05
2022-10-13T10:36:00.760Z,20.43
2022-10-13T10:39:07.067Z,20.79
2022-10-13T10:42:04.263Z,19.83
2022-10-13T10:44:37.127Z,19.51
2022-10-13T10:47:08.613Z,19.96
2022-10-13T10:49:39.466Z,20.61
2022-10-13T10:52:10.445Z,20.21
2022-10-13T10:54:48.208Z,20.32
2022-10-13T10:57:25.453Z,19.92
2022-10-13T11:00:25.735Z,20.53
2022-10-13T11:03:00.474Z,21.06
2022-10-13T11:05:31.494Z,21.28
2022-10-13T11:07:59.815Z,21.55
2022-10-13T11:10:28.305Z,21.59
2022-10-13T11:12:55.711Z,21.84
2022-10-13T11:15:25.297Z,21.73
2022-10-13T11:17:52.964Z,22.21
2022-10-13T11:20:20.313Z,22.44
2022-10-13T11:23:00.002Z,22.51
2022-10-13T11:25:41.104Z,22.03
2022-10-13T11:28:20.667Z,21.58
2022-10-13T11:30:52.268Z,22.05
2022-10-13T11:33:38.405Z,21.51
2022-10-13T11:36:48.105Z,22.23
2022-10-13T11:39:26.632Z,21.94
2022-10-13T11:42:12.418Z,21.53
2022-10-13T11:44:59.903Z,21.76
2022-10-13T11:47:54.053Z,22.19
2022-10-13T11:50:34.745Z,22.05
2022-10-13T11:53:08.046Z,22.18
2022-10-13T11:55:50.864Z,23.39
2022-10-13T11:58:23.557Z,23.55
2022-10-13T12:01:11.177Z,23.25
2022-10-13T12:03:40.988Z,23.39
2022-10-13T12:06:16.031Z,23.30
2022-10-13T12:08:50.477Z,22.84
2022-10-13T12:11:37.371Z,22.20
2022-10-13T12:14:07.721Z,22.91
2022-10-13T12:16:35.083Z,22.65
2022-10-13T12:19:29.947Z,22.53
2022-10-13T12:21:59.826Z,23.72
2022-10-13T12:24:29.802Z,23.32
2022-10-13T12:26:57.801Z,22.68
2022-10-13T12:29:27.781Z,23.49
2022-10-13T12:31:55.628Z,21.28
2022-10-13T12:34:27.692Z,22.12
2022-10-13T12:36:57.104Z,22.55
2022-10-13T12:39:25.571Z,22.57
2022-10-13T12:41:53.642Z,22.50
2022-10-13T12:44:26.293Z,22.36
2022-10-13T12:46:56.236Z,22.53
2022-10-13T12:49:29.491Z,22.72
2022-10-13T12:52:09.131Z,22.29
2022-10-13T12:54:38.643Z,22.48
2022-10-13T12:57:15.705Z,22.39
2022-10-13T12:59:43.475Z,21.73
2022-10-13T13:02:21.272Z,21.92
2022-10-13T13:04:49.150Z,22.01
2022-10-13T13:07:32.893Z,21.64
2022-10-13T13:10:04.483Z,21.96
2022-10-13T13:12:31.894Z,21.29
2022-10-13T13:15:25.777Z,21.66
2022-10-13T13:17:58.647Z,21.57
2022-10-13T13:20:32.227Z,21.60
2022-10-13T13:23:00.709Z,20.90
2022-10-13T13:25:28.104Z,20.80
2022-10-13T13:27:55.434Z,20.24
2022-10-13T13:30:24.258Z,20.24
2022-10-13T13:32:51.692Z,20.74
2022-10-13T13:35:19.100Z,21.32
2022-10-13T13:37:51.078Z,21.30
2022-10-13T13:40:21.014Z,21.21
2022-10-13T13:42:48.878Z,20.86
2022-10-13T13:45:18.382Z,21.15
2022-10-13T13:47:47.002Z,21.14
2022-10-13T13:50:21.168Z,21.14
2022-10-13T13:52:54.503Z,20.72
2022-10-13T13:55:23.425Z,20.82
2022-10-13T13:57:51.134Z,20.72
2022-10-13T14:00:18.702Z,20.94
2022-10-13T14:02:48.278Z,20.66
2022-10-13T14:05:15.708Z,21.18
2022-10-13T14:07:43.049Z,20.52
2022-10-13T14:10:10.925Z,20.64
2022-10-13T14:12:38.618Z,20.76
2022-10-13T14:15:06.502Z,20.81
2022-10-13T14:17:34.099Z,20.76
2022-10-13T14:20:01.452Z,20.85
2022-10-13T14:22:28.890Z,20.68
2022-10-13T14:24:56.491Z,20.72
2022-10-13T14:27:23.794Z,20.07
2022-10-13T14:29:52.123Z,20.37
2022-10-13T14:32:19.883Z,19.54
2022-10-13T14:34:47.401Z,20.26
2022-10-13T14:37:14.711Z,20.63
2022-10-13T14:39:42.310Z,19.99
2022-10-13T14:42:09.690Z,19.78
2022-10-13T14:44:37.035Z,19.84
2022-10-13T14:47:04.664Z,20.13
2022-10-13T14:49:31.998Z,19.96
2022-10-13T14:51:59.362Z,19.91
2022-10-13T14:54:28.342Z,19.75
2022-10-13T14:56:55.698Z,20.00
2022-10-13T14:59:23.040Z,20.35
2022-10-13T15:01:50.624Z,20.39
2022-10-13T15:04:17.939Z,19.98
2022-10-13T15:06:45.238Z,20.14
2022-10-13T15:09:13.045Z,20.07
2022-10-13T15:11:40.393Z,20.28
2022-10-13T15:14:08.657Z,19.98
2022-10-13T15:16:37.822Z,19.95
2022-10-13T15:19:05.544Z,20.17
2022-10-13T15:21:32.853Z,20.33
2022-10-13T15:24:01.473Z,19.86
2022-10-13T15:26:28.824Z,19.80
2022-10-13T15:28:56.195Z,19.91
2022-10-13T15:31:24.453Z,19.57
2022-10-13T15:33:53.471Z,19.31
2022-10-13T15:36:22.167Z,19.57
2022-10-13T15:38:50.680Z,19.58
2022-10-13T15:41:18.592Z,19.20
2022-10-13T15:43:45.969Z,18.95
2022-10-13T15:46:21.725Z,19.01
2022-10-13T15:48:53.260Z,18.60
2022-10-13T15:51:24.058Z,18.81
2022-10-13T15:53:51.423Z,18.76
2022-10-13T15:56:18.795Z,18.63
2022-10-13T15:58:46.415Z,18.52
2022-10-13T16:01:14.446Z,18.49
2022-10-13T16:03:42.376Z,18.35
2022-10-13T16:06:11.116Z,18.17
2022-10-13T16:08:39.749Z,18.16
2022-10-13T16:11:08.923Z,18.18
2022-10-13T16:13:36.427Z,18.04
2022-10-13T16:16:03.949Z,17.94
2022-10-13T16:18:32.988Z,17.80
2022-10-13T16:21:00.423Z,17.77
2022-10-13T16:23:27.773Z,17.50
2022-10-13T16:25:55.378Z,17.16
2022-10-13T16:28:23.471Z,17.15
2022-10-13T16:30:50.851Z,17.19
2022-10-13T16:33:18.558Z,17.29
2022-10-13T16:35:45.957Z,17.04
2022-10-13T16:38:14.411Z,17.18
2022-10-13T16:40:43.179Z,17.07
2022-10-13T16:43:10.535Z,17.13
2022-10-13T16:45:58.521Z,16.95
2022-10-13T16:48:26.335Z,16.65
2022-10-13T16:50:53.983Z,16.73
2022-10-13T16:53:22.899Z,16.53
2022-10-13T16:55:50.791Z,16.17
2022-10-13T16:58:18.154Z,16.14
2022-10-13T17:00:45.564Z,16.46
2022-10-13T17:03:14.039Z,16.36
2022-10-13T17:05:41.645Z,16.24
2022-10-13T17:08:09.165Z,16.22
2022-10-13T17:10:36.764Z,16.15
2022-10-13T17:13:04.133Z,16.17
2022-10-13T17:15:32.483Z,16.07
2022-10-13T17:18:00.085Z,15.92
2022-10-13T17:20:27.608Z,15.98
2022-10-13T17:22:55.273Z,15.75
2022-10-13T17:25:23.046Z,15.77
2022-10-13T17:27:50.364Z,15.68
2022-10-13T17:30:17.724Z,15.66
2022-10-13T17:32:45.715Z,15.35
2022-10-13T17:35:17.923Z,14.91
2022-10-13T17:37:45.612Z,14.92
2022-10-13T17:40:15.322Z,14.81
2022-10-13T17:42:43.720Z,15.07
2022-10-13T17:45:11.998Z,15.37
2022-10-13T17:47:39.632Z,15.21
2022-10-13T17:50:07.800Z,15.45
2022-10-13T17:52:36.405Z,15.23
2022-10-13T17:55:04.023Z,14.82
2022-10-13T17:57:31.772Z,14.77
2022-10-13T18:00:05.696Z,14.81
2022-10-13T18:02:39.830Z,14.93
2022-10-13T18:05:07.882Z,14.94
2022-10-13T18:07:35.340Z,14.85
2022-10-13T18:10:03.387Z,14.81
2022-10-13T18:12:32.263Z,14.76
2022-10-13T18:14:59.748Z,14.30
2022-10-13T18:17:27.519Z,14.44
2022-10-13T18:19:55.694Z,14.36
2022-10-13T18:22:23.426Z,14.39
2022-10-13T18:24:56.807Z,14.34
2022-10-13T18:27:24.965Z,14.24
2022-10-13T18:29:52.891Z,14.49
2022-10-13T18:32:22.425Z,14.33
2022-10-13T18:34:50.822Z,14.50
2022-10-13T18:37:18.868Z,14.49
2022-10-13T18:39:48.593Z,14.49
2022-10-13T18:42:16.837Z,14.31
2022-10-13T18:44:44.710Z,14.14
2022-10-13T18:47:12.537Z,14.19
2022-10-13T18:49:40.498Z,13.92
2022-10-13T18:52:11.453Z,14.00
2022-10-13T18:54:40.324Z,13.56
2022-10-13T18:57:08.171Z,13.72
2022-10-13T18:59:39.001Z,13.84
2022-10-13T19:02:07.234Z,13.91
2022-10-13T19:04:36.014Z,13.98
2022-10-13T19:07:04.862Z,13.85
2022-10-13T19:09:32.952Z,13.65
2022-10-13T19:12:00.627Z,13.49
2022-10-13T19:14:28.417Z,13.54
2022-10-13T19:17:01.616Z,13.65
2022-10-13T19:19:31.571Z,13.63
2022-10-13T19:22:00.725Z,13.56
2022-10-13T19:24:31.426Z,13.64
2022-10-13T19:26:59.838Z,13.47
2022-10-13T19:29:27.267Z,13.39
2022-10-13T19:31:54.936Z,13.39
2022-10-13T19:34:22.976Z,13.43
2022-10-13T19:36:50.779Z,13.49
2022-10-13T19:39:27.079Z,13.46
2022-10-13T19:41:57.965Z,13.39
2022-10-13T19:44:26.003Z,13.37
2022-10-13T19:46:54.228Z,13.12
2022-10-13T19:49:25.477Z,13.18
2022-10-13T19:51:53.996Z,13.01
2022-10-13T19:54:23.117Z,12.81
2022-10-13T19:56:51.263Z,12.84
2022-10-13T19:59:18.966Z,12.89
2022-10-13T20:01:47.087Z,13.21
2022-10-13T20:04:18.324Z,13.09
2022-10-13T20:06:46.439Z,13.10
2022-10-13T20:09:14.187Z,12.90
2022-10-13T20:11:44.743Z,12.87
2022-10-13T20:14:12.984Z,12.56
2022-10-13T20:16:40.536Z,12.61
2022-10-13T20:19:09.391Z,12.56
2022-10-13T20:21:36.720Z,12.82
2022-10-13T20:24:04.085Z,12.80
2022-10-13T20:26:31.824Z,12.61
2022-10-13T20:28:59.233Z,12.84
2022-10-13T20:31:26.717Z,12.29
2022-10-13T20:33:58.077Z,12.39
2022-10-13T20:36:28.477Z,12.44
2022-10-13T20:38:56.085Z,12.52
2022-10-13T20:41:30.514Z,12.52
2022-10-13T20:43:59.994Z,12.68
2022-10-13T20:46:27.788Z,12.75
2022-10-13T20:49:12.676Z,12.41
2022-10-13T20:51:42.752Z,12.47
2022-10-13T20:54:12.070Z,12.39
2022-10-13T20:56:39.465Z,12.08
2022-10-13T20:59:09.892Z,12.21
2022-10-13T21:01:37.789Z,12.09
2022-10-13T21:04:05.396Z,12.40
2022-10-13T21:06:33.670Z,12.32
2022-10-13T21:09:01.700Z,12.24
2022-10-13T21:11:29.042Z,11.82
2022-10-13T21:13:57.474Z,11.87
2022-10-13T21:16:27.498Z,12.11
2022-10-13T21:18:56.315Z,12.14
2022-10-13T21:21:26.425Z,12.08
2022-10-13T21:23:55.658Z,12.11
2022-10-13T21:26:24.395Z,12.03
2022-10-13T21:28:52.069Z,11.83
2022-10-13T21:31:21.495Z,12.05
2022-10-13T21:33:49.298Z,12.13
2022-10-13T21:36:20.160Z,11.98
2022-10-13T21:38:50.063Z,11.98
2022-10-13T21:41:18.073Z,11.85
2022-10-13T21:43:45.402Z,11.85
2022-10-13T21:46:21.283Z,11.75
2022-10-13T21:48:53.724Z,11.87
2022-10-13T21:51:24.106Z,11.93
2022-10-13T21:54:05.256Z,11.98
2022-10-13T21:56:33.747Z,12.02
2022-10-13T21:59:01.797Z,11.57
2022-10-13T22:01:29.641Z,11.34
2022-10-13T22:04:01.165Z,11.38
2022-10-13T22:06:30.299Z,11.49
2022-10-13T22:08:59.465Z,11.42
2022-10-13T22:11:32.149Z,11.59
2022-10-13T22:14:03.332Z,11.84
2022-10-13T22:16:36.846Z,11.69
2022-10-13T22:19:04.575Z,11.18
2022-10-13T22:21:37.355Z,11.11
2022-10-13T22:24:06.821Z,11.31
2022-10-13T22:26:36.829Z,11.32
2022-10-13T22:29:05.753Z,11.32
2022-10-13T22:31:33.407Z,11.32
2022-10-13T22:34:05.981Z,11.50
2022-10-13T22:36:33.352Z,11.59
2022-10-13T22:39:02.903Z,11.67
2022-10-13T22:41:31.895Z,11.67
2022-10-13T22:43:59.841Z,11.16
2022-10-13T22:46:29.215Z,11.22
2022-10-13T22:48:57.416Z,11.13
2022-10-13T22:51:28.359Z,11.04
2022-10-13T22:53:56.964Z,11.18
2022-10-13T22:56:26.787Z,11.34
2022-10-13T22:58:56.849Z,11.26
2022-10-13T23:01:25.252Z,11.38
2022-10-13T23:03:54.669Z,11.53
2022-10-13T23:06:24.085Z,11.56
2022-10-13T23:08:51.573Z,11.56
2022-10-13T23:11:19.341Z,11.37
2022-10-13T23:13:47.024Z,11.22
2022-10-13T23:16:17.539Z,11.24
2022-10-13T23:18:45.284Z,10.71
2022-10-13T23:21:16.822Z,10.88
2022-10-13T23:23:44.448Z,10.92
2022-10-13T23:26:14.626Z,11.05
2022-10-13T23:28:42.616Z,10.98
2022-10-13T23:31:14.896Z,11.03
2022-10-13T23:33:42.619Z,11.01
2022-10-13T23:36:14.894Z,10.47
2022-10-13T23:38:42.967Z,10.60
2022-10-13T23:41:14.936Z,10.87
2022-10-13T23:43:43.453Z,11.17
2022-10-13T23:46:11.146Z,10.99
2022-10-13T23:48:39.541Z,10.74
2022-10-13T23:51:09.851Z,10.41
2022-10-13T23:53:37.825Z,10.62
2022-10-13T23:56:06.476Z,10.76
2022-10-13T23:58:38.020Z,10.71
